Time;durP1;ratioP1;P1;durP2;ratioP2;P2;SDS_P1;SDS_P2;PMS_P1;PMS_P2;Temp;Humidity;BMP_temperature;BMP_pressure;BME280_temperature;BME280_humidity;BME280_pressure;Samples;Min_cycle;Max_cycle;Signal;HPM_P1;HPM_P2
2021/10/30 00:02:15;;;;;;;5.40;3.33;;;10.20;95.20;;;;;;5060861;28;20021;-76
2021/10/30 00:04:40;;;;;;;1.92;1.80;;;10.20;94.90;;;;;;5063926;28;20028;-76
2021/10/30 00:07:06;;;;;;;2.45;1.52;;;10.30;94.90;;;;;;5070026;28;20044;-76
2021/10/30 00:09:31;;;;;;;4.95;2.60;;;10.20;94.90;;;;;;5066195;28;20021;-76
2021/10/30 00:11:57;;;;;;;5.05;2.92;;;10.30;94.80;;;;;;5067775;28;20550;-76
2021/10/30 00:14:22;;;;;;;2.70;2.05;;;10.20;94.80;;;;;;5059467;28;20023;-76
2021/10/30 00:16:48;;;;;;;1.80;1.70;;;10.20;94.60;;;;;;5065773;28;20048;-76
2021/10/30 00:19:13;;;;;;;0.68;0.55;;;10.20;94.60;;;;;;5061075;28;20028;-75
2021/10/30 00:21:39;;;;;;;3.78;2.38;;;10.20;95.10;;;;;;5057573;28;20025;-76
2021/10/30 00:24:04;;;;;;;2.30;2.05;;;10.20;95.10;;;;;;5062890;28;20035;-76
2021/10/30 00:26:30;;;;;;;3.35;2.95;;;10.10;95.40;;;;;;5064933;28;20156;-76
2021/10/30 00:28:55;;;;;;;3.20;1.58;;;10.10;95.40;;;;;;5057759;28;20562;-76
2021/10/30 00:31:21;;;;;;;1.40;1.23;;;10.10;95.30;;;;;;5057914;28;20044;-76
2021/10/30 00:33:46;;;;;;;6.40;2.38;;;10.10;95.40;;;;;;5066345;28;20028;-76
2021/10/30 00:36:12;;;;;;;1.85;1.58;;;10.10;95.70;;;;;;5059341;28;20546;-75
2021/10/30 00:38:38;;;;;;;2.72;1.10;;;10.00;95.80;;;;;;5066389;28;20020;-76
2021/10/30 00:41:06;;;;;;;1.50;1.30;;;10.00;95.50;;;;;;5061519;28;20295;-76
2021/10/30 00:43:33;;;;;;;4.75;2.78;;;10.00;95.60;;;;;;5067347;28;20033;-76
2021/10/30 00:45:58;;;;;;;2.88;1.65;;;10.10;95.30;;;;;;5065177;28;20431;-76
2021/10/30 00:48:24;;;;;;;1.80;1.58;;;10.10;95.30;;;;;;5060330;28;20024;-76
2021/10/30 00:50:49;;;;;;;1.38;1.27;;;10.10;95.20;;;;;;5066533;28;20025;-76
2021/10/30 00:53:17;;;;;;;1.75;1.45;;;10.10;95.50;;;;;;5057597;28;20029;-76
2021/10/30 00:55:44;;;;;;;3.80;2.17;;;10.10;96.10;;;;;;5065257;28;20033;-76
2021/10/30 00:58:11;;;;;;;2.05;1.92;;;10.00;96.20;;;;;;5057095;28;20040;-76
2021/10/30 01:00:37;;;;;;;11.43;2.45;;;10.00;95.90;;;;;;5064583;28;20024;-76
2021/10/30 01:03:04;;;;;;;2.33;2.13;;;9.90;95.90;;;;;;5063310;28;20032;-76
2021/10/30 01:05:30;;;;;;;2.22;1.58;;;10.00;96.40;;;;;;5054749;28;20028;-76
2021/10/30 01:07:55;;;;;;;2.05;1.85;;;10.00;95.90;;;;;;5058877;28;20033;-76
2021/10/30 01:10:21;;;;;;;4.40;3.28;;;10.00;95.90;;;;;;5060367;28;20044;-76
2021/10/30 01:12:47;;;;;;;6.50;2.50;;;10.00;95.80;;;;;;5064140;28;20481;-76
2021/10/30 01:15:13;;;;;;;8.35;2.08;;;10.00;96.10;;;;;;5055448;28;20067;-76
2021/10/30 01:17:38;;;;;;;6.10;2.22;;;9.90;96.00;;;;;;5062887;28;20056;-77
2021/10/30 01:20:05;;;;;;;2.80;2.42;;;9.90;96.10;;;;;;5060362;28;20027;-76
2021/10/30 01:22:35;;;;;;;1.52;1.33;;;9.90;96.50;;;;;;5066912;28;20028;-76
2021/10/30 01:25:01;;;;;;;1.38;1.27;;;9.80;96.40;;;;;;5060331;28;20025;-76
2021/10/30 01:27:26;;;;;;;1.02;1.02;;;9.90;96.80;;;;;;5058504;28;20411;-76
2021/10/30 01:29:52;;;;;;;1.27;0.75;;;9.80;96.70;;;;;;5065468;28;20029;-76
2021/10/30 01:32:19;;;;;;;1.30;1.23;;;9.70;97.00;;;;;;5066162;28;20531;-76
2021/10/30 01:34:44;;;;;;;3.35;1.95;;;9.70;96.90;;;;;;5062967;28;20039;-76
2021/10/30 01:37:13;;;;;;;2.88;1.35;;;9.70;97.30;;;;;;5058602;28;20032;-76
2021/10/30 01:39:40;;;;;;;2.33;0.77;;;9.70;97.40;;;;;;5067276;28;20637;-76
2021/10/30 01:42:05;;;;;;;2.63;1.85;;;9.60;97.40;;;;;;5067623;28;20032;-76
2021/10/30 01:44:31;;;;;;;1.48;1.38;;;9.60;97.60;;;;;;5058670;28;20037;-76
2021/10/30 01:46:59;;;;;;;3.55;2.58;;;9.50;97.70;;;;;;5063289;28;20032;-76
2021/10/30 01:49:24;;;;;;;3.53;1.27;;;9.50;98.10;;;;;;5069857;28;20058;-76
2021/10/30 01:51:50;;;;;;;2.35;2.10;;;9.40;98.40;;;;;;5063957;28;20028;-76
2021/10/30 01:54:15;;;;;;;2.25;2.05;;;9.30;98.70;;;;;;5064529;28;20097;-76
2021/10/30 01:56:41;;;;;;;1.98;1.88;;;9.20;98.90;;;;;;5080843;28;20020;-76
2021/10/30 01:59:06;;;;;;;3.70;3.05;;;9.10;99.00;;;;;;5064176;28;20116;-76
2021/10/30 02:01:32;;;;;;;2.67;2.47;;;9.20;99.00;;;;;;5074963;28;20575;-76
2021/10/30 02:03:58;;;;;;;5.55;3.45;;;9.20;99.10;;;;;;5065704;28;20025;-76
2021/10/30 02:06:23;;;;;;;2.38;1.85;;;9.20;99.10;;;;;;5064665;28;20082;-76
2021/10/30 02:08:49;;;;;;;3.08;2.78;;;9.30;99.00;;;;;;5068229;28;20707;-77
2021/10/30 02:11:14;;;;;;;3.17;1.58;;;9.30;99.00;;;;;;5060963;28;20372;-76
2021/10/30 02:13:40;;;;;;;4.57;1.65;;;9.40;98.80;;;;;;5068291;28;20423;-76
2021/10/30 02:16:05;;;;;;;2.25;2.05;;;9.40;98.70;;;;;;5058835;28;20480;-76
2021/10/30 02:18:31;;;;;;;3.10;1.88;;;9.40;98.50;;;;;;5068257;28;20028;-75
2021/10/30 02:20:56;;;;;;;1.38;1.27;;;9.50;98.60;;;;;;5054229;28;20025;-75
2021/10/30 02:23:22;;;;;;;8.10;3.75;;;9.50;98.50;;;;;;5060405;28;20033;-76
2021/10/30 02:25:47;;;;;;;1.98;1.70;;;9.50;98.50;;;;;;5061715;28;20048;-76
2021/10/30 02:28:13;;;;;;;2.08;1.88;;;9.50;98.90;;;;;;5059838;28;20471;-77
2021/10/30 02:30:39;;;;;;;1.15;1.10;;;9.50;98.50;;;;;;5067086;28;20040;-77
2021/10/30 02:33:05;;;;;;;2.25;1.52;;;9.60;98.10;;;;;;5062642;28;20028;-76
2021/10/30 02:35:30;;;;;;;4.35;2.80;;;9.60;98.30;;;;;;5068684;28;20039;-77
2021/10/30 02:37:56;;;;;;;4.38;1.95;;;9.60;98.40;;;;;;5069113;28;20044;-76
2021/10/30 02:40:21;;;;;;;7.07;2.63;;;9.60;98.30;;;;;;5059086;28;20033;-76
2021/10/30 02:42:47;;;;;;;1.60;1.50;;;9.50;98.50;;;;;;5066582;28;20500;-76
2021/10/30 02:45:12;;;;;;;3.40;2.13;;;9.50;98.30;;;;;;5064945;28;20383;-76
2021/10/30 02:47:38;;;;;;;4.35;1.55;;;9.50;98.70;;;;;;5059064;28;20074;-76
2021/10/30 02:50:04;;;;;;;3.47;2.00;;;9.40;98.80;;;;;;5061464;28;20033;-77
2021/10/30 02:52:29;;;;;;;7.45;3.75;;;9.30;99.00;;;;;;5073491;28;20021;-76
2021/10/30 02:54:55;;;;;;;1.77;1.67;;;9.30;99.20;;;;;;5069335;28;20029;-77
2021/10/30 02:57:20;;;;;;;7.78;1.73;;;9.30;99.20;;;;;;5067977;28;20054;-76
2021/10/30 02:59:46;;;;;;;7.57;1.38;;;9.20;99.50;;;;;;5065383;28;20492;-77
2021/10/30 03:02:12;;;;;;;4.65;1.70;;;9.10;99.80;;;;;;5062462;28;20033;-77
2021/10/30 03:04:38;;;;;;;1.80;1.70;;;9.10;99.80;;;;;;5062651;28;20075;-77
2021/10/30 03:07:03;;;;;;;2.15;1.52;;;9.10;99.90;;;;;;5069825;28;20027;-76
2021/10/30 03:09:29;;;;;;;0.65;0.65;;;9.10;99.90;;;;;;5051116;28;20025;-76
2021/10/30 03:11:55;;;;;;;3.38;1.70;;;9.00;99.90;;;;;;5055883;28;20112;-76
2021/10/30 03:14:21;;;;;;;0.65;0.65;;;9.00;99.90;;;;;;5070663;28;20034;-77
2021/10/30 03:16:46;;;;;;;6.72;3.55;;;9.00;99.90;;;;;;5067970;28;20383;-77
2021/10/30 03:19:12;;;;;;;7.57;3.92;;;9.00;99.90;;;;;;5057668;28;20052;-76
2021/10/30 03:21:37;;;;;;;1.63;1.55;;;9.00;99.90;;;;;;5063533;28;20033;-76
2021/10/30 03:24:03;;;;;;;3.75;2.95;;;9.00;99.90;;;;;;5061434;28;20503;-76
2021/10/30 03:26:29;;;;;;;0.75;0.75;;;8.90;99.90;;;;;;5056252;28;20648;-77
2021/10/30 03:28:55;;;;;;;3.30;2.72;;;8.90;99.90;;;;;;5057576;28;20024;-76
2021/10/30 03:31:20;;;;;;;3.15;1.83;;;8.90;99.90;;;;;;5042930;28;20027;-76
2021/10/30 03:33:46;;;;;;;4.10;2.10;;;8.80;99.90;;;;;;5065438;28;20031;-76
2021/10/30 03:36:11;;;;;;;5.50;2.03;;;8.90;99.90;;;;;;5059780;28;20060;-76
2021/10/30 03:38:37;;;;;;;2.88;2.53;;;8.80;99.90;;;;;;5066541;28;20498;-76
2021/10/30 03:41:03;;;;;;;3.10;2.75;;;8.80;99.90;;;;;;5063459;28;20107;-76
2021/10/30 03:43:36;;;;;;;2.72;2.25;;;8.80;99.90;;;;;;5056050;28;20107;-77
2021/10/30 03:46:01;;;;;;;3.20;2.10;;;8.80;99.90;;;;;;5066101;28;20021;-77
2021/10/30 03:48:27;;;;;;;1.92;1.45;;;8.80;99.90;;;;;;5063681;28;20502;-77
2021/10/30 03:50:52;;;;;;;2.92;1.83;;;8.80;99.90;;;;;;5062393;28;20475;-76
2021/10/30 03:53:19;;;;;;;4.57;2.05;;;8.80;99.90;;;;;;5054392;28;20025;-76
2021/10/30 03:55:46;;;;;;;3.85;3.17;;;8.70;99.90;;;;;;5065666;28;20078;-76
2021/10/30 03:58:11;;;;;;;6.45;1.98;;;8.70;99.90;;;;;;5055738;28;20025;-76
2021/10/30 04:00:37;;;;;;;2.35;1.42;;;8.60;99.90;;;;;;5055982;28;20025;-72
2021/10/30 04:03:03;;;;;;;1.85;1.75;;;8.60;99.90;;;;;;5063730;28;20021;-72
2021/10/30 04:05:28;;;;;;;6.93;2.30;;;8.60;99.90;;;;;;5066328;28;20471;-71
2021/10/30 04:07:54;;;;;;;2.85;1.63;;;8.60;99.90;;;;;;5054721;28;20384;-72
2021/10/30 04:10:19;;;;;;;1.92;1.52;;;8.60;99.90;;;;;;5068515;28;20031;-73
2021/10/30 04:12:45;;;;;;;2.85;2.65;;;8.60;99.90;;;;;;5059827;28;20381;-72
2021/10/30 04:15:11;;;;;;;1.20;1.10;;;8.50;99.90;;;;;;5058223;28;20029;-72
2021/10/30 04:17:36;;;;;;;1.40;1.30;;;8.40;99.90;;;;;;5062842;28;20454;-72
2021/10/30 04:20:02;;;;;;;2.83;2.50;;;8.40;99.90;;;;;;5050991;28;20028;-72
2021/10/30 04:22:28;;;;;;;4.82;2.63;;;8.40;99.90;;;;;;5062812;28;20082;-72
2021/10/30 04:24:55;;;;;;;1.48;1.38;;;8.40;99.90;;;;;;5055472;28;20032;-72
2021/10/30 04:27:20;;;;;;;3.40;2.42;;;8.40;99.90;;;;;;5055250;28;20041;-72
2021/10/30 04:29:46;;;;;;;31.25;2.65;;;8.40;99.90;;;;;;5064248;28;20021;-72
2021/10/30 04:32:13;;;;;;;2.40;2.20;;;8.30;99.90;;;;;;5056492;28;20056;-72
2021/10/30 04:35:21;;;;;;;3.15;1.73;;;8.30;99.90;;;;;;5064721;28;20031;-72
2021/10/30 04:37:27;;;;;;;1.80;1.70;;;8.30;99.90;;;;;;5052475;28;20495;-73
2021/10/30 04:39:53;;;;;;;2.17;1.67;;;8.30;99.90;;;;;;5066126;28;20074;-72
2021/10/30 04:42:20;;;;;;;3.05;2.55;;;8.30;99.90;;;;;;5065920;28;20087;-72
2021/10/30 04:44:46;;;;;;;1.02;0.98;;;8.20;99.90;;;;;;5055486;28;20036;-71
2021/10/30 04:47:14;;;;;;;3.25;1.42;;;8.20;99.90;;;;;;5057097;28;20029;-72
2021/10/30 04:49:40;;;;;;;2.58;2.20;;;8.10;99.90;;;;;;5055830;28;20029;-72
2021/10/30 04:52:07;;;;;;;2.10;1.92;;;8.10;99.90;;;;;;5058850;28;20020;-73
2021/10/30 04:54:33;;;;;;;2.53;2.33;;;8.00;99.90;;;;;;5053609;28;20033;-72
2021/10/30 04:56:58;;;;;;;2.30;1.35;;;8.00;99.90;;;;;;5050666;28;20029;-72
2021/10/30 04:59:24;;;;;;;1.63;1.52;;;8.00;99.90;;;;;;5064196;28;20539;-72
2021/10/30 05:01:50;;;;;;;1.77;1.48;;;8.00;99.90;;;;;;5049473;28;20039;-72
2021/10/30 05:04:15;;;;;;;0.63;0.63;;;7.90;99.90;;;;;;5061137;28;20028;-72
2021/10/30 05:06:41;;;;;;;1.92;1.83;;;7.90;99.90;;;;;;5061305;28;20056;-72
2021/10/30 05:09:06;;;;;;;0.95;0.95;;;7.80;99.90;;;;;;5064419;28;20024;-72
2021/10/30 05:11:32;;;;;;;1.15;0.82;;;7.80;99.90;;;;;;5065571;28;20048;-72
2021/10/30 05:13:57;;;;;;;4.80;2.70;;;7.80;99.90;;;;;;5053895;28;20068;-72
2021/10/30 05:16:22;;;;;;;1.50;1.40;;;7.70;99.90;;;;;;5060093;28;20025;-72
2021/10/30 05:18:48;;;;;;;4.38;1.90;;;7.70;99.90;;;;;;5064440;28;20051;-72
2021/10/30 05:21:13;;;;;;;0.55;0.55;;;7.70;99.90;;;;;;5065655;28;20057;-72
2021/10/30 05:23:40;;;;;;;0.80;0.80;;;7.70;99.90;;;;;;5065763;28;20037;-73
2021/10/30 05:26:06;;;;;;;2.25;1.75;;;7.70;99.90;;;;;;5061598;28;20044;-72
2021/10/30 05:28:31;;;;;;;3.30;1.92;;;7.70;99.90;;;;;;5063039;28;20061;-72
2021/10/30 05:30:57;;;;;;;1.02;1.02;;;7.60;99.90;;;;;;5058515;28;20486;-73
2021/10/30 05:33:22;;;;;;;1.60;1.50;;;7.60;99.90;;;;;;5064781;28;20017;-72
2021/10/30 05:35:48;;;;;;;3.22;2.88;;;7.60;99.90;;;;;;5063177;28;20036;-72
2021/10/30 05:38:16;;;;;;;0.57;0.57;;;7.50;99.90;;;;;;5066711;28;20368;-72
2021/10/30 05:40:42;;;;;;;1.75;1.63;;;7.50;99.90;;;;;;5053834;28;20082;-73
2021/10/30 05:43:07;;;;;;;1.45;1.15;;;7.50;99.90;;;;;;5066066;28;20676;-72
2021/10/30 05:45:33;;;;;;;1.80;1.23;;;7.50;99.90;;;;;;5073945;28;20056;-73
2021/10/30 05:47:59;;;;;;;1.77;1.65;;;7.40;99.90;;;;;;5066919;28;20028;-72
2021/10/30 05:50:25;;;;;;;3.00;2.70;;;7.40;99.90;;;;;;5059721;28;20024;-72
2021/10/30 05:52:50;;;;;;;5.40;1.17;;;7.40;99.90;;;;;;5061667;28;20035;-72
2021/10/30 05:55:16;;;;;;;2.28;2.08;;;7.30;99.90;;;;;;5059077;28;20540;-72
2021/10/30 05:57:41;;;;;;;2.90;1.98;;;7.30;99.90;;;;;;5062953;28;20028;-72
2021/10/30 06:00:07;;;;;;;1.83;1.70;;;7.20;99.90;;;;;;5053464;28;20565;-72
2021/10/30 06:02:33;;;;;;;1.17;1.10;;;7.20;99.90;;;;;;5060288;28;20036;-72
2021/10/30 06:04:59;;;;;;;1.20;0.55;;;7.20;99.90;;;;;;5061568;28;20025;-72
2021/10/30 06:07:24;;;;;;;2.63;1.85;;;7.20;99.90;;;;;;5055635;28;20383;-72
2021/10/30 06:09:50;;;;;;;1.05;1.00;;;7.10;99.90;;;;;;5066349;28;20429;-73
2021/10/30 06:12:16;;;;;;;1.73;1.63;;;7.10;99.90;;;;;;5062324;28;20025;-72
2021/10/30 06:14:41;;;;;;;2.25;1.15;;;7.10;99.90;;;;;;5064784;28;20013;-72
2021/10/30 06:17:07;;;;;;;2.85;2.28;;;7.10;99.90;;;;;;5066134;28;20059;-72
2021/10/30 06:19:33;;;;;;;1.35;1.25;;;7.10;99.90;;;;;;5057061;28;20056;-73
2021/10/30 06:21:58;;;;;;;2.65;2.08;;;7.10;99.90;;;;;;5061195;28;20028;-72
2021/10/30 06:24:23;;;;;;;3.03;1.92;;;7.10;99.90;;;;;;5069304;28;20024;-72
2021/10/30 06:26:49;;;;;;;0.65;0.65;;;7.00;99.90;;;;;;5068213;28;20718;-72
2021/10/30 06:29:14;;;;;;;4.45;2.25;;;7.00;99.90;;;;;;5063848;28;20020;-73
2021/10/30 06:31:40;;;;;;;2.75;1.40;;;7.00;99.90;;;;;;5068833;28;20730;-72
2021/10/30 06:34:05;;;;;;;0.63;0.63;;;7.00;99.90;;;;;;5059204;28;20021;-72
2021/10/30 06:36:31;;;;;;;1.88;1.27;;;7.00;99.90;;;;;;5064305;28;20078;-72
2021/10/30 06:38:57;;;;;;;1.25;1.20;;;7.00;99.90;;;;;;5061383;28;20039;-72
2021/10/30 06:41:22;;;;;;;8.90;2.67;;;7.00;99.90;;;;;;5070642;28;20036;-72
2021/10/30 06:43:48;;;;;;;1.45;1.23;;;7.00;99.90;;;;;;5065627;28;20372;-72
2021/10/30 06:46:13;;;;;;;1.88;1.73;;;7.10;99.90;;;;;;5055305;28;20081;-72
2021/10/30 06:48:39;;;;;;;1.92;1.80;;;7.00;99.90;;;;;;5062402;28;20176;-72
2021/10/30 06:51:05;;;;;;;1.40;1.17;;;7.00;99.90;;;;;;5067132;28;20056;-72
2021/10/30 06:53:33;;;;;;;1.75;1.65;;;7.10;99.90;;;;;;5070967;28;20092;-72
2021/10/30 06:55:59;;;;;;;2.95;2.75;;;7.10;99.90;;;;;;5059713;28;20028;-72
2021/10/30 06:58:29;;;;;;;2.35;1.00;;;7.10;99.90;;;;;;5066005;28;20020;-73
2021/10/30 07:00:57;;;;;;;2.08;1.50;;;7.10;99.90;;;;;;5068578;28;20024;-73
2021/10/30 07:03:23;;;;;;;4.45;1.50;;;7.10;99.90;;;;;;5054213;28;20070;-73
2021/10/30 07:05:49;;;;;;;1.80;1.42;;;7.20;99.90;;;;;;5063466;28;20040;-72
2021/10/30 07:08:14;;;;;;;2.80;1.73;;;7.20;99.90;;;;;;5065113;28;20017;-73
2021/10/30 07:10:40;;;;;;;1.27;1.23;;;7.20;99.90;;;;;;5065146;28;20266;-72
2021/10/30 07:13:06;;;;;;;1.50;1.27;;;7.20;99.90;;;;;;5069569;28;20052;-72
2021/10/30 07:15:31;;;;;;;3.08;1.40;;;7.30;99.90;;;;;;5062777;28;20032;-72
2021/10/30 07:17:57;;;;;;;5.28;3.42;;;7.40;99.90;;;;;;5067050;28;20433;-72
2021/10/30 07:20:28;;;;;;;1.63;1.52;;;7.50;99.90;;;;;;5062438;28;20229;-72
2021/10/30 07:22:54;;;;;;;2.72;2.05;;;7.50;99.90;;;;;;5059406;28;20028;-72
2021/10/30 07:25:21;;;;;;;1.20;1.13;;;7.70;99.90;;;;;;5065516;28;20085;-72
2021/10/30 07:27:48;;;;;;;7.30;2.33;;;7.80;99.90;;;;;;5063169;28;20045;-72
2021/10/30 07:30:14;;;;;;;1.25;1.15;;;7.90;99.90;;;;;;5067489;28;20074;-72
2021/10/30 07:32:40;;;;;;;1.55;1.45;;;8.00;99.90;;;;;;5053850;28;20063;-72
2021/10/30 07:35:06;;;;;;;1.02;0.95;;;8.10;99.90;;;;;;5054626;28;20466;-72
2021/10/30 07:37:33;;;;;;;7.18;1.73;;;8.20;99.90;;;;;;5060010;28;20586;-72
2021/10/30 07:39:59;;;;;;;4.85;1.35;;;8.30;99.90;;;;;;5050615;28;20040;-72
2021/10/30 07:42:25;;;;;;;4.43;1.92;;;8.40;99.90;;;;;;5066003;28;20024;-73
2021/10/30 07:44:51;;;;;;;3.20;1.65;;;8.50;99.90;;;;;;5069071;28;20041;-72
2021/10/30 07:47:17;;;;;;;0.65;0.65;;;8.60;99.90;;;;;;5061376;28;20032;-72
2021/10/30 07:49:42;;;;;;;2.90;1.95;;;8.70;99.90;;;;;;5063632;28;20021;-73
2021/10/30 07:52:12;;;;;;;1.40;1.23;;;8.70;99.90;;;;;;5065283;28;20438;-76
2021/10/30 07:54:39;;;;;;;2.40;1.90;;;8.80;99.90;;;;;;5059313;28;20036;-72
2021/10/30 07:57:09;;;;;;;1.80;1.60;;;8.90;99.90;;;;;;5054241;28;20051;-72
2021/10/30 07:59:35;;;;;;;1.13;1.02;;;9.00;99.90;;;;;;5055043;28;20411;-70
2021/10/30 08:02:02;;;;;;;2.17;1.85;;;9.10;99.90;;;;;;5058747;28;20032;-72
2021/10/30 08:04:29;;;;;;;1.42;1.23;;;9.20;99.90;;;;;;5057904;28;20024;-70
2021/10/30 08:06:55;;;;;;;3.35;2.15;;;9.30;99.90;;;;;;5059566;28;20536;-72
2021/10/30 08:09:21;;;;;;;4.65;2.63;;;9.40;99.90;;;;;;5056352;28;20024;-72
2021/10/30 08:11:46;;;;;;;1.35;1.27;;;9.50;99.90;;;;;;5054790;28;20376;-72
2021/10/30 08:14:12;;;;;;;5.18;1.77;;;9.60;99.90;;;;;;5061293;28;20146;-72
2021/10/30 08:16:37;;;;;;;1.35;1.13;;;9.70;99.90;;;;;;5057197;28;20033;-71
2021/10/30 08:19:04;;;;;;;1.00;0.73;;;9.80;99.90;;;;;;5066029;28;20036;-71
2021/10/30 08:21:29;;;;;;;1.20;1.17;;;9.90;99.90;;;;;;5061533;28;20112;-72
2021/10/30 08:23:57;;;;;;;3.03;1.90;;;10.00;99.90;;;;;;5054374;28;20115;-71
2021/10/30 08:26:22;;;;;;;1.48;1.35;;;10.10;99.50;;;;;;5063885;28;20686;-71
2021/10/30 08:28:48;;;;;;;2.10;2.00;;;10.20;99.20;;;;;;5062928;28;20131;-71
2021/10/30 08:31:14;;;;;;;1.65;1.55;;;10.30;98.50;;;;;;5064196;28;20048;-70
2021/10/30 08:33:39;;;;;;;2.90;2.55;;;10.40;98.40;;;;;;5063394;28;20059;-71
2021/10/30 08:36:05;;;;;;;1.92;1.83;;;10.40;98.30;;;;;;5064944;28;20766;-71
2021/10/30 08:38:32;;;;;;;5.88;1.90;;;10.50;98.10;;;;;;5060159;28;20025;-72
2021/10/30 08:40:59;;;;;;;0.98;0.77;;;10.60;97.60;;;;;;5055440;28;20040;-71
2021/10/30 08:43:25;;;;;;;2.28;1.40;;;10.70;97.60;;;;;;5054019;28;20056;-71
2021/10/30 08:45:51;;;;;;;1.80;1.45;;;10.70;97.50;;;;;;5062919;28;20119;-70
2021/10/30 08:48:18;;;;;;;3.88;2.15;;;10.90;97.30;;;;;;5066177;28;20383;-71
2021/10/30 08:50:44;;;;;;;3.00;2.47;;;10.90;96.60;;;;;;5061578;28;20479;-70
2021/10/30 08:53:09;;;;;;;1.58;1.48;;;11.00;96.30;;;;;;5066566;28;20047;-72
2021/10/30 08:55:35;;;;;;;1.23;1.17;;;11.10;95.90;;;;;;5061699;28;20421;-71
2021/10/30 08:58:09;;;;;;;3.75;3.08;;;11.20;95.80;;;;;;5057600;28;20029;-72
2021/10/30 09:00:44;;;;;;;0.82;0.82;;;11.30;95.20;;;;;;5054707;28;20032;-71
2021/10/30 09:03:12;;;;;;;1.85;1.55;;;11.40;95.30;;;;;;5059654;28;20040;-72
2021/10/30 09:05:40;;;;;;;8.02;2.03;;;11.40;94.90;;;;;;5064176;28;20029;-71
2021/10/30 09:08:07;;;;;;;2.25;1.80;;;11.50;94.70;;;;;;5055222;28;20327;-71
2021/10/30 09:10:36;;;;;;;2.05;1.55;;;11.60;94.70;;;;;;5061220;28;20100;-71
2021/10/30 09:13:05;;;;;;;2.38;1.58;;;11.60;94.50;;;;;;5066772;28;20043;-71
2021/10/30 09:15:32;;;;;;;20.70;3.38;;;11.70;94.50;;;;;;5062052;28;20024;-71
2021/10/30 09:17:59;;;;;;;7.22;1.88;;;11.80;94.10;;;;;;5063043;28;20086;-73
2021/10/30 09:20:33;;;;;;;1.67;1.05;;;11.90;93.80;;;;;;5063358;28;20076;-71
2021/10/30 09:22:58;;;;;;;5.35;1.55;;;12.00;93.40;;;;;;5067068;28;20064;-72
2021/10/30 09:25:24;;;;;;;1.83;1.73;;;12.10;93.30;;;;;;5064535;28;20052;-73
2021/10/30 09:27:55;;;;;;;1.25;1.17;;;12.20;92.30;;;;;;5056316;28;20120;-77
2021/10/30 09:30:25;;;;;;;;;;;12.30;91.90;;;;;;5054342;28;20116;-72
2021/10/30 09:32:52;;;;;;;1.73;1.52;;;12.40;92.00;;;;;;5060127;28;19909;-73
2021/10/30 09:35:22;;;;;;;2.33;1.98;;;12.50;92.10;;;;;;5053151;28;20427;-72
2021/10/30 09:37:48;;;;;;;8.23;2.35;;;12.50;91.80;;;;;;5056711;28;20044;-72
2021/10/30 09:40:19;;;;;;;1.85;1.75;;;12.60;91.50;;;;;;5056048;28;20028;-73
2021/10/30 09:43:07;;;;;;;1.45;1.00;;;12.70;91.90;;;;;;5063025;28;20036;-72
2021/10/30 09:45:37;;;;;;;2.20;2.00;;;12.80;91.90;;;;;;5053287;28;20052;-72
2021/10/30 09:48:03;;;;;;;3.45;1.30;;;12.90;91.00;;;;;;5064091;28;20479;-72
2021/10/30 09:50:32;;;;;;;1.50;1.08;;;13.00;91.20;;;;;;5061239;28;20116;-71
2021/10/30 09:52:58;;;;;;;1.52;1.42;;;13.00;90.80;;;;;;5057690;28;20083;-73
2021/10/30 09:55:28;;;;;;;1.45;1.35;;;13.10;90.70;;;;;;5055945;28;20029;-70
2021/10/30 09:58:02;;;;;;;1.85;1.48;;;13.20;90.40;;;;;;5058313;28;20020;-70
2021/10/30 10:00:28;;;;;;;1.75;1.33;;;13.30;89.50;;;;;;5066145;28;20032;-80
2021/10/30 10:03:02;;;;;;;2.28;2.08;;;13.30;89.00;;;;;;5066971;28;20044;-72
2021/10/30 10:05:28;;;;;;;0.85;0.55;;;13.40;90.00;;;;;;5065017;28;20063;-72
2021/10/30 10:07:56;;;;;;;2.58;1.75;;;13.50;89.00;;;;;;5059608;28;20542;-72
2021/10/30 10:10:22;;;;;;;1.50;1.25;;;13.60;87.50;;;;;;5058435;28;20032;-72
2021/10/30 10:12:50;;;;;;;5.95;1.98;;;13.70;87.40;;;;;;5063173;28;20251;-72
2021/10/30 10:15:16;;;;;;;1.90;1.30;;;13.70;87.20;;;;;;5064353;28;20438;-74
2021/10/30 10:17:43;;;;;;;1.75;0.82;;;13.90;87.00;;;;;;5066062;28;20045;-71
2021/10/30 10:20:09;;;;;;;1.77;1.67;;;14.00;86.50;;;;;;5061762;28;20029;-74
2021/10/30 10:22:37;;;;;;;0.90;0.90;;;14.00;84.20;;;;;;5056024;28;20055;-73
2021/10/30 10:25:22;;;;;;;2.15;2.05;;;14.10;83.90;;;;;;5054414;28;20090;-73
2021/10/30 10:27:47;;;;;;;1.88;0.93;;;14.20;83.90;;;;;;5062472;28;20060;-73
2021/10/30 10:30:51;;;;;;;3.55;1.52;;;14.30;85.60;;;;;;5064116;28;20028;-73
2021/10/30 10:33:17;;;;;;;1.60;1.30;;;14.40;86.70;;;;;;5060087;28;20542;-72
2021/10/30 10:36:21;;;;;;;9.18;1.02;;;14.50;83.90;;;;;;5065833;28;20037;-72
2021/10/30 10:38:56;;;;;;;3.33;1.75;;;14.60;82.40;;;;;;5053004;28;20024;-73
2021/10/30 10:41:40;;;;;;;2.05;1.83;;;14.80;82.30;;;;;;5059678;28;20527;-73
2021/10/30 10:44:12;;;;;;;15.63;2.03;;;15.00;80.80;;;;;;5057584;28;20056;-72
2021/10/30 10:46:40;;;;;;;1.02;0.73;;;15.10;80.90;;;;;;5062239;28;20021;-73
2021/10/30 10:49:45;;;;;;;4.40;2.40;;;15.30;78.70;;;;;;5063462;28;20051;-74
2021/10/30 10:52:24;;;;;;;1.45;1.35;;;15.50;77.90;;;;;;5058271;28;20531;-72
2021/10/30 10:54:53;;;;;;;2.25;2.05;;;15.60;77.80;;;;;;5059042;28;20032;-73
2021/10/30 10:57:35;;;;;;;2.05;1.50;;;15.80;77.20;;;;;;5055345;28;20387;-72
2021/10/30 11:00:09;;;;;;;3.10;2.05;;;16.00;75.50;;;;;;5061251;28;20380;-72
2021/10/30 11:02:37;;;;;;;1.75;1.08;;;16.10;76.90;;;;;;5055433;28;20557;-72
2021/10/30 11:05:13;;;;;;;2.30;2.03;;;16.30;74.50;;;;;;5061975;28;20067;-72
2021/10/30 11:08:07;;;;;;;1.52;1.33;;;16.40;74.00;;;;;;5069597;28;20020;-72
2021/10/30 11:10:36;;;;;;;2.90;1.77;;;16.60;71.80;;;;;;5015703;28;20028;-72
2021/10/30 11:13:07;;;;;;;3.20;1.75;;;16.70;71.70;;;;;;5068621;28;20025;-73
2021/10/30 11:15:42;;;;;;;3.03;1.83;;;16.80;71.50;;;;;;5067048;28;20025;-72
2021/10/30 11:18:35;;;;;;;2.85;1.25;;;17.00;69.10;;;;;;5067913;28;20772;-72
2021/10/30 11:21:25;;;;;;;4.63;1.77;;;17.10;69.40;;;;;;5061692;28;20111;-72
2021/10/30 11:23:55;;;;;;;2.85;1.30;;;17.10;68.50;;;;;;5062509;28;20033;-72
2021/10/30 11:26:29;;;;;;;5.22;2.65;;;17.40;68.10;;;;;;5055005;28;20055;-72
2021/10/30 11:29:08;;;;;;;1.00;0.80;;;17.60;66.50;;;;;;5055577;28;20028;-71
2021/10/30 11:31:34;;;;;;;2.25;1.58;;;17.80;66.10;;;;;;5065577;28;20029;-72
2021/10/30 11:34:02;;;;;;;5.90;2.42;;;18.00;64.30;;;;;;5063207;28;20540;-70
2021/10/30 11:36:30;;;;;;;3.15;1.77;;;18.10;63.60;;;;;;5032868;28;20165;-72
2021/10/30 11:38:57;;;;;;;2.42;2.22;;;18.30;63.50;;;;;;5057891;28;20446;-72
2021/10/30 11:41:28;;;;;;;3.28;1.42;;;18.50;62.40;;;;;;5059812;28;20436;-71
2021/10/30 11:44:00;;;;;;;2.28;1.83;;;18.70;62.40;;;;;;5060467;28;20061;-73
2021/10/30 11:46:25;;;;;;;2.10;1.92;;;18.90;61.40;;;;;;5060065;28;20035;-73
2021/10/30 11:48:56;;;;;;;1.38;1.27;;;19.00;60.90;;;;;;5056192;28;20108;-81
2021/10/30 11:51:32;;;;;;;0.93;0.93;;;19.00;59.70;;;;;;5059564;28;20095;-76
2021/10/30 11:53:59;;;;;;;3.70;2.08;;;18.70;60.80;;;;;;5047143;28;20681;-77
2021/10/30 11:56:26;;;;;;;2.05;1.80;;;18.70;61.60;;;;;;5060571;28;20033;-72
2021/10/30 11:58:55;;;;;;;1.40;1.30;;;18.60;62.30;;;;;;5063712;28;20546;-74
2021/10/30 12:01:23;;;;;;;1.67;0.90;;;18.60;62.20;;;;;;5058264;28;20032;-73
2021/10/30 12:04:07;;;;;;;1.13;0.98;;;18.60;61.60;;;;;;5066656;28;20108;-74
2021/10/30 12:06:44;;;;;;;0.50;0.50;;;18.50;61.90;;;;;;5055522;28;20410;-72
2021/10/30 12:09:33;;;;;;;1.15;1.02;;;18.50;62.70;;;;;;5057532;28;20495;-72
2021/10/30 12:12:01;;;;;;;2.63;1.67;;;18.50;63.70;;;;;;5062286;28;20037;-72
2021/10/30 12:14:37;;;;;;;0.70;0.70;;;18.60;62.10;;;;;;5050991;28;20108;-71
2021/10/30 12:17:23;;;;;;;4.25;1.95;;;18.60;61.30;;;;;;5062689;28;20391;-73
2021/10/30 12:19:58;;;;;;;1.70;1.52;;;18.80;61.00;;;;;;5063209;28;20168;-73
2021/10/30 12:22:24;;;;;;;8.63;2.22;;;18.90;59.80;;;;;;5057598;28;20107;-71
2021/10/30 12:24:58;;;;;;;1.85;1.50;;;19.00;59.90;;;;;;5067148;28;20053;-73
2021/10/30 12:27:24;;;;;;;3.60;2.53;;;19.00;60.70;;;;;;5064867;28;20056;-71
2021/10/30 12:29:49;;;;;;;2.40;1.92;;;19.20;59.30;;;;;;5062177;28;20479;-70
2021/10/30 12:32:16;;;;;;;1.40;1.30;;;19.20;58.80;;;;;;5066694;28;20050;-71
2021/10/30 12:34:57;;;;;;;2.13;1.95;;;19.00;58.60;;;;;;5058454;28;20033;-74
2021/10/30 12:37:28;;;;;;;2.80;1.90;;;18.90;60.60;;;;;;5062335;28;20052;-72
2021/10/30 12:39:58;;;;;;;1.75;1.65;;;18.80;59.90;;;;;;5061087;28;20032;-79
2021/10/30 12:42:24;;;;;;;2.05;1.85;;;18.80;60.70;;;;;;5054612;28;20043;-76
2021/10/30 12:45:01;;;;;;;4.90;2.40;;;18.70;60.80;;;;;;5058192;28;20025;-76
2021/10/30 12:47:29;;;;;;;2.10;1.83;;;18.90;59.50;;;;;;5055292;28;20533;-76
2021/10/30 12:49:58;;;;;;;1.25;1.23;;;19.10;58.10;;;;;;5056046;28;20503;-76
2021/10/30 12:52:47;;;;;;;3.30;1.40;;;19.40;58.60;;;;;;5055984;28;20045;-76
2021/10/30 12:55:15;;;;;;;1.92;1.38;;;19.40;57.90;;;;;;5062054;28;20036;-76
2021/10/30 12:57:41;;;;;;;1.75;1.38;;;19.40;57.30;;;;;;5057299;28;20040;-76